createdAt,value
2022-12-06T00:01:34.936Z,7.00
2022-12-06T00:04:07.894Z,5.70
2022-12-06T00:06:41.657Z,5.40
2022-12-06T00:09:17.864Z,5.87
2022-12-06T00:11:46.246Z,5.87
2022-12-06T00:14:15.553Z,5.40
2022-12-06T00:16:44.023Z,5.83
2022-12-06T00:19:15.606Z,5.23
2022-12-06T00:21:45.070Z,5.30
2022-12-06T00:24:16.294Z,4.57
2022-12-06T00:26:48.153Z,4.97
2022-12-06T00:29:19.614Z,4.67
2022-12-06T00:31:48.610Z,4.40
2022-12-06T00:34:18.616Z,4.97
2022-12-06T00:36:47.813Z,5.17
2022-12-06T00:39:18.388Z,4.80
2022-12-06T00:41:46.936Z,4.80
2022-12-06T00:44:15.516Z,4.80
2022-12-06T00:46:43.886Z,4.40
2022-12-06T00:49:13.851Z,4.67
2022-12-06T00:51:43.503Z,4.73
2022-12-06T00:54:16.158Z,4.43
2022-12-06T00:56:45.202Z,4.10
2022-12-06T00:59:13.457Z,4.03
2022-12-06T01:01:42.922Z,3.77
2022-12-06T01:04:11.446Z,4.60
2022-12-06T01:06:40.101Z,3.53
2022-12-06T01:09:15.231Z,3.93
2022-12-06T01:11:43.600Z,4.30
2022-12-06T01:14:11.909Z,8.23
2022-12-06T01:16:40.402Z,4.23
2022-12-06T01:19:09.194Z,4.37
2022-12-06T01:21:37.401Z,4.27
2022-12-06T01:24:06.293Z,4.00
2022-12-06T01:26:36.921Z,4.20
2022-12-06T01:29:05.356Z,4.30
2022-12-06T01:31:38.738Z,4.03
2022-12-06T01:34:08.593Z,4.70
2022-12-06T01:36:36.762Z,4.83
2022-12-06T01:39:10.333Z,4.43
2022-12-06T01:41:40.679Z,4.83
2022-12-06T01:44:40.994Z,5.23
2022-12-06T01:47:16.636Z,4.57
2022-12-06T01:49:49.042Z,4.60
2022-12-06T01:52:18.285Z,5.47
2022-12-06T01:54:46.897Z,4.33
2022-12-06T01:57:18.850Z,4.90
2022-12-06T01:59:47.768Z,5.07
2022-12-06T02:02:16.176Z,4.13
2022-12-06T02:04:45.659Z,4.27
2022-12-06T02:07:14.211Z,4.00
2022-12-06T02:09:43.476Z,3.53
2022-12-06T02:12:14.881Z,3.43
2022-12-06T02:14:48.422Z,2.90
2022-12-06T02:17:39.977Z,3.50
2022-12-06T02:20:27.671Z,2.93
2022-12-06T02:23:57.149Z,3.00
2022-12-06T02:26:37.414Z,2.93
2022-12-06T02:30:08.881Z,3.03
2022-12-06T02:32:54.466Z,3.10
2022-12-06T02:35:32.663Z,3.00
2022-12-06T02:38:13.016Z,3.07
2022-12-06T02:40:47.868Z,3.03
2022-12-06T02:43:20.139Z,3.03
2022-12-06T02:45:53.689Z,3.30
2022-12-06T02:48:26.966Z,3.20
2022-12-06T02:51:00.512Z,2.70
2022-12-06T02:53:32.125Z,2.80
2022-12-06T02:56:00.677Z,2.93
2022-12-06T02:58:28.866Z,2.60
2022-12-06T03:00:58.932Z,3.33
2022-12-06T03:04:12.420Z,2.50
2022-12-06T03:06:54.914Z,2.10
2022-12-06T03:09:50.521Z,2.00
2022-12-06T03:12:31.790Z,1.90
2022-12-06T03:15:10.810Z,2.23
2022-12-06T03:17:45.972Z,2.00
2022-12-06T03:20:22.408Z,1.73
2022-12-06T03:22:55.349Z,1.80
2022-12-06T03:25:24.073Z,1.67
2022-12-06T03:27:56.267Z,1.77
2022-12-06T03:30:25.345Z,1.47
2022-12-06T03:32:54.075Z,1.70
2022-12-06T03:35:29.935Z,1.70
2022-12-06T03:38:08.956Z,1.50
2022-12-06T03:40:41.411Z,1.77
2022-12-06T03:43:09.983Z,2.07
2022-12-06T03:45:44.708Z,2.00
2022-12-06T03:48:16.853Z,2.10
2022-12-06T03:50:55.546Z,2.23
2022-12-06T03:53:26.712Z,2.43
2022-12-06T03:55:54.920Z,1.70
2022-12-06T03:58:23.150Z,2.03
2022-12-06T04:00:51.341Z,2.17
2022-12-06T04:03:19.603Z,2.13
2022-12-06T04:05:49.211Z,2.23
2022-12-06T04:08:17.490Z,2.03
2022-12-06T04:10:45.801Z,2.53
2022-12-06T04:13:19.335Z,2.13
2022-12-06T04:15:48.242Z,2.27
2022-12-06T04:18:17.032Z,2.10
2022-12-06T04:21:07.235Z,2.30
2022-12-06T04:23:37.759Z,2.90
2022-12-06T04:26:09.232Z,2.90
2022-12-06T04:28:55.155Z,3.33
2022-12-06T04:31:41.450Z,3.17
2022-12-06T04:34:27.284Z,2.93
2022-12-06T04:37:15.157Z,3.00
2022-12-06T04:39:43.911Z,3.13
2022-12-06T04:42:30.720Z,3.43
2022-12-06T04:44:58.924Z,3.27
2022-12-06T04:47:27.441Z,2.97
2022-12-06T04:49:56.121Z,2.87
2022-12-06T04:52:25.664Z,3.00
2022-12-06T04:54:55.214Z,3.00
2022-12-06T04:57:23.402Z,3.20
2022-12-06T04:59:51.529Z,3.07
2022-12-06T05:02:19.882Z,3.03
2022-12-06T05:04:48.072Z,2.93
2022-12-06T05:07:16.331Z,3.27
2022-12-06T05:09:45.845Z,2.97
2022-12-06T05:12:14.171Z,2.70
2022-12-06T05:14:42.334Z,3.60
2022-12-06T05:17:10.561Z,3.10
2022-12-06T05:19:49.660Z,3.20
2022-12-06T05:22:17.850Z,3.20
2022-12-06T05:24:47.399Z,3.10
2022-12-06T05:27:15.826Z,3.80
2022-12-06T05:29:44.000Z,3.07
2022-12-06T05:32:12.161Z,3.00
2022-12-06T05:34:40.445Z,3.70
2022-12-06T05:37:08.845Z,3.07
2022-12-06T05:39:37.038Z,3.67
2022-12-06T05:42:06.804Z,3.93
2022-12-06T05:44:35.022Z,3.80
2022-12-06T05:47:03.297Z,3.83
2022-12-06T05:49:31.530Z,3.90
2022-12-06T05:52:03.788Z,4.17
2022-12-06T05:54:32.394Z,4.20
2022-12-06T05:57:00.632Z,3.60
2022-12-06T05:59:30.483Z,3.80
2022-12-06T06:01:58.757Z,4.13
2022-12-06T06:04:27.017Z,3.60
2022-12-06T06:06:55.192Z,3.77
2022-12-06T06:09:24.278Z,4.10
2022-12-06T06:11:52.415Z,4.27
2022-12-06T06:14:20.752Z,3.63
2022-12-06T06:16:50.470Z,4.00
2022-12-06T06:19:19.284Z,4.40
2022-12-06T06:21:49.170Z,6.87
2022-12-06T06:24:17.537Z,4.77
2022-12-06T06:26:45.753Z,4.47
2022-12-06T06:29:14.069Z,4.70
2022-12-06T06:31:42.379Z,4.80
2022-12-06T06:34:11.922Z,5.00
2022-12-06T06:36:45.555Z,5.13
2022-12-06T06:39:14.400Z,4.33
2022-12-06T06:41:42.606Z,4.17
2022-12-06T06:44:10.741Z,3.90
2022-12-06T06:46:39.159Z,4.90
2022-12-06T06:49:07.567Z,5.67
2022-12-06T06:51:37.121Z,4.20
2022-12-06T06:54:05.504Z,4.10
2022-12-06T06:56:33.717Z,4.50
2022-12-06T06:59:01.844Z,4.43
2022-12-06T07:01:30.122Z,3.60
2022-12-06T07:03:58.673Z,3.73
2022-12-06T07:06:26.922Z,3.87
2022-12-06T07:08:56.861Z,4.83
2022-12-06T07:11:25.007Z,5.50
2022-12-06T07:13:53.216Z,4.47
2022-12-06T07:16:21.556Z,4.80
2022-12-06T07:18:49.887Z,4.80
2022-12-06T07:21:18.397Z,4.57
2022-12-06T07:23:46.573Z,4.47
2022-12-06T07:26:18.879Z,4.50
2022-12-06T07:28:49.731Z,4.97
2022-12-06T07:31:20.830Z,4.30
2022-12-06T07:33:50.234Z,7.17
2022-12-06T07:36:18.501Z,6.53
2022-12-06T07:38:50.471Z,5.47
2022-12-06T07:41:40.569Z,5.03
2022-12-06T07:44:28.966Z,4.63
2022-12-06T07:46:57.862Z,4.70
2022-12-06T07:49:26.300Z,5.17
2022-12-06T07:51:55.926Z,4.63
2022-12-06T07:54:24.994Z,5.37
2022-12-06T07:56:56.183Z,5.23
2022-12-06T07:59:24.729Z,5.17
2022-12-06T08:01:53.573Z,5.33
2022-12-06T08:04:22.488Z,5.33
2022-12-06T08:06:50.838Z,5.13
2022-12-06T08:09:19.714Z,5.80
2022-12-06T08:11:47.923Z,8.17
2022-12-06T08:14:17.488Z,8.37
2022-12-06T08:16:45.650Z,5.77
2022-12-06T08:19:13.876Z,6.57
2022-12-06T08:21:42.086Z,6.03
2022-12-06T08:24:10.585Z,6.13
2022-12-06T08:26:38.862Z,5.80
2022-12-06T08:29:07.228Z,7.20
2022-12-06T08:31:37.048Z,7.27
2022-12-06T08:34:05.866Z,6.50
2022-12-06T08:36:34.174Z,5.77
2022-12-06T08:39:02.387Z,7.07
2022-12-06T08:41:48.526Z,6.70
2022-12-06T08:44:18.469Z,7.10
2022-12-06T08:46:48.333Z,7.20
2022-12-06T08:49:18.113Z,7.80
2022-12-06T08:51:47.895Z,8.17
2022-12-06T08:54:19.813Z,6.80
2022-12-06T08:56:48.242Z,9.20
2022-12-06T08:59:16.629Z,8.77
2022-12-06T09:01:47.713Z,7.87
2022-12-06T09:04:16.546Z,7.10
2022-12-06T09:06:46.468Z,6.97
2022-12-06T09:09:16.816Z,6.53
2022-12-06T09:11:46.707Z,7.10
2022-12-06T09:14:21.426Z,6.57
2022-12-06T09:16:53.745Z,6.13
2022-12-06T09:19:22.471Z,6.90
2022-12-06T09:21:50.629Z,6.83
2022-12-06T09:24:20.215Z,7.07
2022-12-06T09:26:49.468Z,8.40
2022-12-06T09:29:18.694Z,11.67
2022-12-06T09:31:47.631Z,12.47
2022-12-06T09:34:18.004Z,8.43
2022-12-06T09:36:50.279Z,6.17
2022-12-06T09:39:22.918Z,7.03
2022-12-06T09:42:41.659Z,6.10
2022-12-06T09:45:46.505Z,7.30
2022-12-06T09:48:56.800Z,6.00
2022-12-06T09:51:45.778Z,6.33
2022-12-06T09:54:33.850Z,7.70
2022-12-06T09:57:08.967Z,7.90
2022-12-06T09:59:48.672Z,7.30
2022-12-06T10:02:36.004Z,7.00
2022-12-06T10:05:31.429Z,5.30
2022-12-06T10:08:14.725Z,6.07
2022-12-06T10:10:57.551Z,5.17
2022-12-06T10:13:43.532Z,5.63
2022-12-06T10:16:23.448Z,6.63
2022-12-06T10:19:08.695Z,5.13
2022-12-06T10:21:53.823Z,5.10
2022-12-06T10:24:45.916Z,5.77
2022-12-06T10:27:22.600Z,4.80
2022-12-06T10:29:58.102Z,3.93
2022-12-06T10:32:52.041Z,4.80
2022-12-06T10:35:33.876Z,4.40
2022-12-06T10:38:13.871Z,4.17
2022-12-06T10:40:55.552Z,4.23
2022-12-06T10:43:30.681Z,3.93
2022-12-06T10:46:28.896Z,3.90
2022-12-06T10:49:07.427Z,4.40
2022-12-06T10:51:43.170Z,4.53
2022-12-06T10:54:24.726Z,3.93
2022-12-06T10:56:57.973Z,3.20
2022-12-06T10:59:34.194Z,3.70
2022-12-06T11:02:27.824Z,4.30
2022-12-06T11:05:03.178Z,4.83
2022-12-06T11:07:39.517Z,5.50
2022-12-06T11:10:19.956Z,4.20
2022-12-06T11:12:55.466Z,3.87
2022-12-06T11:15:28.793Z,4.10
2022-12-06T11:18:06.414Z,3.70
2022-12-06T11:20:40.689Z,3.63
2022-12-06T11:23:19.093Z,4.10
2022-12-06T11:26:11.247Z,3.90
2022-12-06T11:28:44.038Z,4.00
2022-12-06T11:31:24.004Z,4.10
2022-12-06T11:33:53.712Z,4.00
2022-12-06T11:36:23.648Z,4.00
2022-12-06T11:38:52.105Z,4.03
2022-12-06T11:41:25.333Z,4.20
2022-12-06T11:43:56.252Z,3.90
2022-12-06T11:46:25.419Z,3.20
2022-12-06T11:48:54.902Z,3.40
2022-12-06T11:51:26.427Z,3.27
2022-12-06T11:54:09.046Z,3.30
2022-12-06T11:56:39.773Z,3.30
2022-12-06T11:59:24.804Z,3.60
2022-12-06T12:01:56.069Z,3.47
2022-12-06T12:04:29.288Z,3.10
2022-12-06T12:07:01.431Z,3.70
2022-12-06T12:09:34.523Z,3.23
2022-12-06T12:12:06.573Z,3.47
2022-12-06T12:14:44.172Z,3.43
2022-12-06T12:17:20.600Z,2.90
2022-12-06T12:19:52.857Z,2.83
2022-12-06T12:22:34.532Z,3.83
2022-12-06T12:25:18.846Z,3.00
2022-12-06T12:27:52.115Z,2.67
2022-12-06T12:30:36.289Z,3.03
2022-12-06T12:33:21.601Z,3.60
2022-12-06T12:35:56.085Z,2.90
2022-12-06T12:38:35.145Z,3.23
2022-12-06T12:41:12.573Z,3.43
2022-12-06T12:43:41.418Z,2.90
2022-12-06T12:46:23.033Z,3.17
2022-12-06T12:48:53.030Z,2.43
2022-12-06T12:51:28.623Z,2.17
2022-12-06T12:53:59.986Z,2.03
2022-12-06T12:56:30.173Z,2.23
2022-12-06T12:58:58.912Z,2.60
2022-12-06T13:01:40.242Z,2.30
2022-12-06T13:04:32.558Z,2.30
2022-12-06T13:07:04.972Z,2.30
2022-12-06T13:09:47.005Z,2.20
2022-12-06T13:12:22.128Z,2.37
2022-12-06T13:14:57.177Z,2.70
2022-12-06T13:17:30.331Z,2.43
2022-12-06T13:19:58.850Z,2.67
2022-12-06T13:22:33.273Z,2.50
2022-12-06T13:25:06.341Z,2.50
2022-12-06T13:27:40.322Z,2.60
2022-12-06T13:30:17.199Z,2.43
2022-12-06T13:32:52.022Z,2.20
2022-12-06T13:35:27.470Z,2.43
2022-12-06T13:37:58.241Z,3.80
2022-12-06T13:40:48.222Z,2.53
2022-12-06T13:43:59.149Z,2.60
2022-12-06T13:46:33.428Z,2.43
2022-12-06T13:49:27.774Z,2.17
2022-12-06T13:51:55.946Z,2.67
2022-12-06T13:54:42.134Z,2.37
2022-12-06T13:57:31.823Z,2.50
2022-12-06T14:00:00.896Z,2.73
2022-12-06T14:02:54.156Z,2.40
2022-12-06T14:08:38.036Z,2.60
2022-12-06T14:11:19.894Z,2.33
2022-12-06T14:13:52.449Z,2.67
2022-12-06T14:16:30.664Z,3.60
2022-12-06T14:18:59.014Z,4.70
2022-12-06T14:21:34.832Z,3.53
2022-12-06T14:24:04.420Z,3.50
2022-12-06T14:26:35.292Z,3.13
2022-12-06T14:29:03.924Z,3.47
2022-12-06T14:31:40.246Z,2.83
2022-12-06T14:34:29.061Z,3.20
2022-12-06T14:37:00.260Z,3.00
2022-12-06T14:39:31.782Z,3.60
2022-12-06T14:42:19.483Z,3.10
2022-12-06T14:44:55.014Z,3.27
2022-12-06T14:47:25.669Z,2.70
2022-12-06T14:50:15.681Z,3.20
2022-12-06T14:53:03.859Z,3.10
2022-12-06T14:55:54.425Z,3.50
2022-12-06T14:58:25.581Z,3.20
2022-12-06T15:00:56.974Z,4.10
2022-12-06T15:03:33.178Z,3.67
2022-12-06T15:06:15.876Z,3.80
2022-12-06T15:08:51.826Z,4.30
2022-12-06T15:11:50.950Z,4.70
2022-12-06T15:14:22.134Z,4.33
2022-12-06T15:17:05.487Z,4.50
2022-12-06T15:19:36.371Z,4.53
2022-12-06T15:22:05.245Z,4.23
2022-12-06T15:24:35.080Z,5.43
2022-12-06T15:27:03.272Z,5.20
2022-12-06T15:29:31.619Z,4.80
2022-12-06T15:32:02.534Z,5.30
2022-12-06T15:34:35.023Z,5.50
2022-12-06T15:37:36.921Z,5.67
2022-12-06T15:39:53.999Z,4.83
2022-12-06T15:42:25.298Z,4.27
2022-12-06T15:44:53.583Z,4.20
2022-12-06T15:47:21.815Z,3.80
2022-12-06T15:49:51.866Z,4.37
2022-12-06T15:52:23.478Z,3.70
2022-12-06T15:54:53.313Z,3.77
2022-12-06T15:57:21.604Z,4.00
2022-12-06T15:59:49.813Z,3.90
2022-12-06T16:02:19.791Z,4.23
2022-12-06T16:04:50.946Z,3.23
2022-12-06T16:07:19.846Z,4.30
2022-12-06T16:09:49.134Z,3.37
2022-12-06T16:12:19.112Z,3.37
2022-12-06T16:14:47.302Z,3.63
2022-12-06T16:17:15.742Z,3.60
2022-12-06T16:20:12.833Z,4.20
2022-12-06T16:22:58.486Z,3.50
2022-12-06T16:25:26.672Z,4.00
2022-12-06T16:27:56.614Z,4.07
2022-12-06T16:30:33.899Z,3.93
2022-12-06T16:33:07.385Z,3.70
2022-12-06T16:35:36.203Z,4.07
2022-12-06T16:38:04.426Z,4.33
2022-12-06T16:40:33.884Z,4.03
2022-12-06T16:43:03.635Z,4.00
2022-12-06T16:45:35.274Z,3.90
2022-12-06T16:48:03.665Z,4.30
2022-12-06T16:50:33.803Z,3.97
2022-12-06T16:53:02.169Z,4.30
2022-12-06T16:55:30.639Z,4.63
2022-12-06T16:57:59.171Z,4.70
2022-12-06T17:00:28.732Z,4.03
2022-12-06T17:02:57.118Z,4.77
2022-12-06T17:05:27.453Z,4.13
2022-12-06T17:07:55.795Z,4.67
2022-12-06T17:10:24.129Z,5.23
2022-12-06T17:12:52.397Z,5.87
2022-12-06T17:15:22.550Z,6.53
2022-12-06T17:17:52.134Z,7.07
2022-12-06T17:20:20.945Z,6.70
2022-12-06T17:22:49.219Z,6.00
2022-12-06T17:25:18.158Z,5.30
2022-12-06T17:27:46.597Z,5.50
2022-12-06T17:30:17.956Z,5.37
2022-12-06T17:32:47.963Z,6.17
2022-12-06T17:35:17.751Z,5.73
2022-12-06T17:37:45.956Z,5.60
2022-12-06T17:40:15.765Z,6.60
2022-12-06T17:43:01.644Z,6.03
2022-12-06T17:45:30.062Z,7.70
2022-12-06T17:47:58.313Z,7.13
2022-12-06T17:50:28.412Z,6.53
2022-12-06T17:52:56.933Z,6.50
2022-12-06T17:55:25.240Z,7.47
2022-12-06T17:57:53.435Z,8.03
2022-12-06T18:00:22.512Z,7.70
2022-12-06T18:02:50.921Z,7.40
2022-12-06T18:05:19.336Z,7.27
2022-12-06T18:07:48.937Z,8.03
2022-12-06T18:10:17.460Z,8.77
2022-12-06T18:12:45.688Z,8.43
2022-12-06T18:15:27.861Z,8.63
2022-12-06T18:17:56.076Z,9.43
2022-12-06T18:20:24.487Z,8.47
2022-12-06T18:22:54.031Z,9.23
2022-12-06T18:25:22.251Z,9.17
2022-12-06T18:27:50.508Z,9.53
2022-12-06T18:30:19.094Z,9.20
2022-12-06T18:32:47.278Z,11.57
2022-12-06T18:35:15.739Z,11.50
2022-12-06T18:37:43.931Z,13.23
2022-12-06T18:40:13.963Z,12.23
2022-12-06T18:42:42.209Z,11.50
2022-12-06T18:45:11.515Z,11.27
2022-12-06T18:47:39.727Z,10.50
2022-12-06T18:50:10.499Z,11.37
2022-12-06T18:52:38.891Z,10.67
2022-12-06T18:55:08.933Z,11.70
2022-12-06T18:57:39.442Z,13.23
2022-12-06T19:00:09.620Z,14.50
2022-12-06T19:02:38.095Z,14.27
2022-12-06T19:05:07.733Z,13.07
2022-12-06T19:07:36.198Z,12.10
2022-12-06T19:10:05.136Z,11.77
2022-12-06T19:12:33.518Z,13.47
2022-12-06T19:15:03.251Z,13.07
2022-12-06T19:17:31.528Z,12.97
2022-12-06T19:19:59.963Z,12.67
2022-12-06T19:22:28.706Z,12.70
2022-12-06T19:24:57.291Z,12.80
2022-12-06T19:27:25.578Z,16.83
2022-12-06T19:29:54.045Z,14.53
2022-12-06T19:32:23.591Z,13.83
2022-12-06T19:34:52.396Z,13.50
2022-12-06T19:37:20.645Z,14.80
2022-12-06T19:39:48.924Z,14.77
2022-12-06T19:42:34.703Z,14.60
2022-12-06T19:45:03.001Z,16.37
2022-12-06T19:47:32.896Z,16.83
2022-12-06T19:50:01.644Z,14.20
2022-12-06T19:52:31.111Z,15.93
2022-12-06T19:54:59.564Z,16.63
2022-12-06T19:57:27.833Z,17.10
2022-12-06T19:59:56.553Z,16.50
2022-12-06T20:02:25.002Z,15.10
2022-12-06T20:04:54.701Z,14.40
2022-12-06T20:07:23.072Z,13.30
2022-12-06T20:09:51.363Z,16.40
2022-12-06T20:12:20.694Z,15.70
2022-12-06T20:14:50.779Z,15.70
2022-12-06T20:17:21.951Z,15.43
2022-12-06T20:19:50.255Z,16.40
2022-12-06T20:22:22.661Z,15.57
2022-12-06T20:24:50.959Z,14.93
2022-12-06T20:27:39.275Z,15.93
2022-12-06T20:30:09.510Z,15.43
2022-12-06T20:32:37.767Z,14.47
2022-12-06T20:35:06.506Z,13.50
2022-12-06T20:37:36.402Z,16.40
2022-12-06T20:40:05.894Z,16.67
2022-12-06T20:42:34.625Z,17.57
2022-12-06T20:45:02.884Z,16.30
2022-12-06T20:47:31.080Z,14.43
2022-12-06T20:50:00.533Z,16.07
2022-12-06T20:52:29.193Z,13.93
2022-12-06T20:54:58.873Z,13.20
2022-12-06T20:57:27.189Z,11.77
2022-12-06T20:59:55.564Z,12.73
2022-12-06T21:02:23.797Z,13.50
2022-12-06T21:04:52.100Z,13.40
2022-12-06T21:07:21.548Z,13.37
2022-12-06T21:09:49.772Z,13.77
2022-12-06T21:12:20.323Z,12.67
2022-12-06T21:14:48.618Z,13.17
2022-12-06T21:17:16.955Z,13.33
2022-12-06T21:19:45.233Z,13.50
2022-12-06T21:22:13.462Z,12.60
2022-12-06T21:24:41.747Z,13.37
2022-12-06T21:27:09.990Z,14.00
2022-12-06T21:29:42.584Z,13.77
2022-12-06T21:32:10.832Z,15.17
2022-12-06T21:34:45.838Z,14.50
2022-12-06T21:37:15.021Z,13.77
2022-12-06T21:39:46.304Z,14.77
2022-12-06T21:42:15.805Z,15.20
2022-12-06T21:44:45.563Z,14.63
2022-12-06T21:47:14.025Z,16.17
2022-12-06T21:49:42.732Z,15.63
2022-12-06T21:52:10.929Z,16.87
2022-12-06T21:54:39.148Z,17.93
2022-12-06T21:57:07.327Z,17.30
2022-12-06T21:59:35.587Z,17.20
2022-12-06T22:02:05.243Z,16.57
2022-12-06T22:04:33.530Z,17.90
2022-12-06T22:07:01.684Z,17.47
2022-12-06T22:09:30.008Z,18.77
2022-12-06T22:11:59.775Z,15.50
2022-12-06T22:14:27.999Z,17.47
2022-12-06T22:16:56.320Z,17.23
2022-12-06T22:19:26.031Z,16.97
2022-12-06T22:21:55.908Z,16.23
2022-12-06T22:24:25.385Z,17.17
2022-12-06T22:26:54.547Z,16.27
2022-12-06T22:29:22.832Z,16.83
2022-12-06T22:31:51.339Z,15.00
2022-12-06T22:34:19.662Z,15.83
2022-12-06T22:36:49.261Z,17.13
2022-12-06T22:39:18.572Z,15.90
2022-12-06T22:41:46.872Z,16.47
2022-12-06T22:44:15.056Z,16.00
2022-12-06T22:46:43.331Z,15.63
2022-12-06T22:49:17.736Z,15.40
2022-12-06T22:51:46.349Z,15.47
2022-12-06T22:54:16.453Z,15.33
2022-12-06T22:56:48.439Z,16.03
2022-12-06T22:59:17.238Z,15.53
2022-12-06T23:01:45.728Z,15.53
2022-12-06T23:04:14.099Z,13.80
2022-12-06T23:06:42.466Z,13.37
2022-12-06T23:09:17.390Z,12.60
2022-12-06T23:11:45.817Z,13.50
2022-12-06T23:14:14.155Z,12.40
2022-12-06T23:16:43.723Z,12.27
2022-12-06T23:19:12.286Z,13.43
2022-12-06T23:21:42.441Z,11.60
2022-12-06T23:24:13.980Z,12.00
2022-12-06T23:26:46.881Z,10.73
2022-12-06T23:29:17.001Z,10.97
2022-12-06T23:31:47.047Z,9.50
2022-12-06T23:34:18.384Z,9.23
2022-12-06T23:36:46.906Z,8.87
2022-12-06T23:39:15.537Z,8.83
2022-12-06T23:41:45.674Z,7.43
2022-12-06T23:44:14.570Z,9.00
2022-12-06T23:46:45.769Z,7.90
2022-12-06T23:49:18.429Z,7.03
2022-12-06T23:51:47.627Z,6.70
2022-12-06T23:54:18.099Z,5.87
2022-12-06T23:56:50.797Z,5.90
2022-12-06T23:59:19.450Z,5.83
